createdAt,value
2023-03-04T00:00:32.268Z,1.50
2023-03-04T00:03:20.134Z,1.52
2023-03-04T00:05:47.473Z,1.64
2023-03-04T00:08:15.180Z,1.63
2023-03-04T00:10:42.686Z,1.60
2023-03-04T00:13:10.278Z,1.56
2023-03-04T00:15:37.515Z,1.69
2023-03-04T00:18:05.140Z,1.61
2023-03-04T00:20:32.520Z,1.75
2023-03-04T00:23:00.100Z,1.67
2023-03-04T00:25:27.382Z,1.69
2023-03-04T00:27:54.939Z,1.69
2023-03-04T00:30:22.198Z,1.65
2023-03-04T00:32:49.948Z,1.73
2023-03-04T00:35:17.444Z,1.64
2023-03-04T00:37:44.977Z,1.65
2023-03-04T00:40:12.952Z,1.65
2023-03-04T00:42:40.510Z,1.64
2023-03-04T00:45:09.283Z,1.59
2023-03-04T00:47:36.887Z,1.61
2023-03-04T00:50:05.024Z,1.64
2023-03-04T00:52:32.979Z,1.64
2023-03-04T00:55:00.253Z,1.58
2023-03-04T00:57:27.803Z,1.61
2023-03-04T00:59:55.062Z,1.58
2023-03-04T01:02:22.601Z,1.60
2023-03-04T01:04:49.920Z,1.60
2023-03-04T01:07:17.416Z,1.52
2023-03-04T01:09:44.822Z,1.63
2023-03-04T01:12:12.507Z,1.49
2023-03-04T01:14:39.802Z,1.47
2023-03-04T01:17:07.319Z,1.41
2023-03-04T01:19:34.593Z,1.55
2023-03-04T01:22:02.159Z,1.42
2023-03-04T01:24:30.216Z,1.48
2023-03-04T01:26:57.758Z,1.47
2023-03-04T01:29:24.968Z,1.56
2023-03-04T01:31:52.477Z,1.56
2023-03-04T01:34:19.747Z,1.65
2023-03-04T01:36:47.310Z,1.56
2023-03-04T01:39:14.546Z,1.53
2023-03-04T01:41:42.270Z,1.52
2023-03-04T01:44:11.204Z,1.58
2023-03-04T01:46:44.004Z,1.49
2023-03-04T01:49:17.199Z,1.51
2023-03-04T01:51:50.579Z,1.55
2023-03-04T01:54:18.424Z,1.46
2023-03-04T01:56:48.871Z,1.49
2023-03-04T01:59:23.997Z,1.46
2023-03-04T02:01:56.033Z,1.57
2023-03-04T02:04:34.520Z,1.40
2023-03-04T02:07:04.652Z,1.45
2023-03-04T02:09:34.348Z,1.51
2023-03-04T02:12:02.510Z,1.43
2023-03-04T02:14:29.881Z,1.53
2023-03-04T02:16:57.646Z,1.49
2023-03-04T02:20:02.650Z,1.39
2023-03-04T02:22:30.653Z,1.32
2023-03-04T02:25:15.967Z,1.39
2023-03-04T02:27:43.537Z,1.35
2023-03-04T02:30:20.290Z,1.36
2023-03-04T02:32:47.992Z,1.38
2023-03-04T02:35:18.888Z,1.41
2023-03-04T02:37:46.799Z,1.40
2023-03-04T02:40:29.518Z,1.35
2023-03-04T02:43:01.217Z,1.31
2023-03-04T02:45:36.451Z,1.29
2023-03-04T02:48:04.779Z,1.39
2023-03-04T02:50:42.982Z,1.40
2023-03-04T02:53:11.013Z,1.34
2023-03-04T02:55:38.518Z,1.25
2023-03-04T02:58:06.114Z,1.28
2023-03-04T03:00:33.640Z,1.34
2023-03-04T03:03:01.298Z,1.40
2023-03-04T03:05:32.548Z,1.32
2023-03-04T03:08:00.331Z,1.29
2023-03-04T03:10:28.321Z,1.33
2023-03-04T03:12:55.977Z,1.39
2023-03-04T03:15:23.331Z,1.17
2023-03-04T03:17:51.016Z,1.14
2023-03-04T03:20:18.460Z,1.08
2023-03-04T03:22:46.133Z,1.13
2023-03-04T03:25:15.573Z,1.16
2023-03-04T03:27:43.455Z,1.29
2023-03-04T03:30:14.160Z,1.18
2023-03-04T03:32:41.739Z,1.13
2023-03-04T03:35:09.567Z,1.09
2023-03-04T03:37:37.130Z,1.19
2023-03-04T03:40:05.582Z,1.14
2023-03-04T03:42:33.220Z,1.10
2023-03-04T03:45:00.471Z,1.02
2023-03-04T03:47:28.072Z,1.13
2023-03-04T03:49:55.386Z,1.04
2023-03-04T03:52:22.988Z,1.09
2023-03-04T03:54:50.374Z,1.19
2023-03-04T03:57:17.946Z,1.12
2023-03-04T03:59:45.308Z,0.92
2023-03-04T04:02:12.918Z,0.93
2023-03-04T04:04:40.330Z,0.96
2023-03-04T04:07:07.837Z,0.84
2023-03-04T04:09:35.136Z,0.93
2023-03-04T04:12:06.304Z,0.97
2023-03-04T04:14:34.190Z,1.00
2023-03-04T04:17:01.767Z,1.03
2023-03-04T04:19:29.080Z,1.08
2023-03-04T04:21:56.662Z,1.11
2023-03-04T04:24:24.168Z,1.09
2023-03-04T04:26:51.846Z,1.23
2023-03-04T04:29:19.721Z,1.24
2023-03-04T04:31:47.318Z,1.28
2023-03-04T04:34:14.710Z,1.16
2023-03-04T04:36:42.495Z,1.09
2023-03-04T04:39:09.855Z,1.20
2023-03-04T04:41:41.103Z,1.03
2023-03-04T04:44:10.723Z,1.02
2023-03-04T04:46:39.609Z,0.93
2023-03-04T04:49:08.018Z,1.05
2023-03-04T04:51:38.377Z,1.11
2023-03-04T04:54:06.822Z,1.01
2023-03-04T04:56:34.620Z,1.01
2023-03-04T04:59:05.090Z,1.07
2023-03-04T05:01:33.028Z,0.94
2023-03-04T05:04:00.453Z,0.93
2023-03-04T05:06:28.311Z,0.95
2023-03-04T05:08:55.910Z,1.05
2023-03-04T05:11:23.663Z,0.99
2023-03-04T05:13:51.613Z,0.97
2023-03-04T05:16:19.510Z,0.93
2023-03-04T05:18:47.003Z,0.98
2023-03-04T05:21:14.926Z,0.94
2023-03-04T05:23:44.071Z,1.03
2023-03-04T05:26:17.828Z,1.12
2023-03-04T05:28:45.938Z,1.06
2023-03-04T05:31:13.530Z,1.06
2023-03-04T05:33:41.118Z,1.08
2023-03-04T05:36:09.268Z,1.07
2023-03-04T05:38:37.068Z,1.15
2023-03-04T05:41:07.741Z,1.15
2023-03-04T05:43:36.350Z,1.14
2023-03-04T05:46:04.961Z,1.24
2023-03-04T05:48:32.316Z,1.14
2023-03-04T05:51:01.823Z,1.23
2023-03-04T05:53:29.493Z,1.23
2023-03-04T05:55:59.363Z,1.22
2023-03-04T05:58:26.709Z,1.27
2023-03-04T06:00:54.477Z,1.30
2023-03-04T06:03:25.442Z,1.16
2023-03-04T06:05:54.399Z,1.29
2023-03-04T06:08:21.712Z,1.14
2023-03-04T06:10:54.395Z,1.23
2023-03-04T06:13:22.606Z,1.23
2023-03-04T06:15:56.341Z,1.23
2023-03-04T06:18:26.117Z,1.37
2023-03-04T06:21:00.209Z,1.40
2023-03-04T06:23:28.329Z,1.46
2023-03-04T06:25:58.994Z,1.28
2023-03-04T06:28:26.859Z,1.33
2023-03-04T06:30:56.332Z,1.36
2023-03-04T06:33:23.925Z,1.40
2023-03-04T06:35:56.415Z,1.51
2023-03-04T06:38:25.415Z,1.50
2023-03-04T06:40:54.312Z,1.52
2023-03-04T06:43:23.377Z,1.54
2023-03-04T06:45:50.961Z,1.62
2023-03-04T06:48:18.274Z,1.58
2023-03-04T06:50:45.847Z,1.60
2023-03-04T06:53:13.206Z,1.55
2023-03-04T06:55:40.852Z,1.42
2023-03-04T06:58:08.154Z,1.55
2023-03-04T07:00:35.740Z,1.57
2023-03-04T07:03:03.256Z,1.57
2023-03-04T07:05:30.972Z,1.57
2023-03-04T07:07:58.162Z,1.56
2023-03-04T07:10:25.788Z,1.53
2023-03-04T07:12:53.077Z,1.53
2023-03-04T07:15:20.839Z,1.41
2023-03-04T07:17:48.101Z,1.41
2023-03-04T07:20:15.796Z,1.49
2023-03-04T07:22:43.052Z,1.59
2023-03-04T07:25:10.950Z,1.48
2023-03-04T07:27:41.330Z,1.47
2023-03-04T07:30:10.142Z,1.46
2023-03-04T07:32:37.536Z,1.68
2023-03-04T07:35:06.026Z,1.76
2023-03-04T07:37:33.582Z,1.75
2023-03-04T07:40:01.172Z,1.74
2023-03-04T07:42:28.547Z,1.86
2023-03-04T07:44:56.129Z,1.93
2023-03-04T07:47:23.392Z,2.01
2023-03-04T07:49:51.089Z,1.98
2023-03-04T07:52:18.411Z,2.02
2023-03-04T07:54:45.988Z,1.93
2023-03-04T07:57:13.332Z,2.07
2023-03-04T07:59:41.012Z,2.02
2023-03-04T08:02:10.572Z,1.84
2023-03-04T08:04:38.276Z,1.66
2023-03-04T08:07:05.612Z,1.83
2023-03-04T08:09:33.191Z,1.65
2023-03-04T08:12:00.487Z,1.73
2023-03-04T08:14:28.080Z,1.86
2023-03-04T08:16:55.419Z,1.86
2023-03-04T08:19:25.025Z,1.85
2023-03-04T08:21:53.186Z,1.85
2023-03-04T08:24:20.819Z,1.86
2023-03-04T08:26:50.645Z,1.82
2023-03-04T08:29:22.613Z,1.76
2023-03-04T08:31:52.656Z,1.89
2023-03-04T08:34:25.333Z,2.09
2023-03-04T08:36:52.788Z,2.01
2023-03-04T08:39:20.917Z,2.16
2023-03-04T08:41:49.282Z,2.14
2023-03-04T08:44:17.100Z,2.18
2023-03-04T08:46:44.417Z,2.24
2023-03-04T08:49:13.108Z,2.37
2023-03-04T08:51:40.843Z,2.32
2023-03-04T08:54:08.513Z,2.33
2023-03-04T08:56:35.903Z,2.46
2023-03-04T08:59:03.960Z,2.52
2023-03-04T09:01:31.358Z,2.45
2023-03-04T09:03:59.044Z,2.40
2023-03-04T09:06:26.565Z,2.50
2023-03-04T09:08:54.253Z,2.46
2023-03-04T09:11:21.724Z,2.50
2023-03-04T09:13:51.364Z,2.36
2023-03-04T09:16:18.964Z,2.52
2023-03-04T09:18:46.607Z,2.28
2023-03-04T09:21:14.157Z,2.38
2023-03-04T09:23:42.894Z,2.44
2023-03-04T09:26:25.151Z,2.44
2023-03-04T09:28:57.258Z,2.37
2023-03-04T09:31:26.942Z,2.43
2023-03-04T09:33:56.199Z,2.42
2023-03-04T09:36:24.618Z,2.45
2023-03-04T09:38:52.756Z,2.30
2023-03-04T09:41:29.206Z,2.38
2023-03-04T09:43:58.466Z,2.28
2023-03-04T09:46:41.659Z,2.47
2023-03-04T09:49:14.170Z,2.38
2023-03-04T09:51:51.987Z,2.43
2023-03-04T09:54:46.668Z,2.38
2023-03-04T09:57:42.991Z,2.37
2023-03-04T10:00:25.928Z,2.51
2023-03-04T10:03:24.801Z,2.40
2023-03-04T10:06:07.457Z,2.33
2023-03-04T10:08:50.180Z,2.40
2023-03-04T10:11:42.864Z,2.58
2023-03-04T10:14:22.557Z,2.52
2023-03-04T10:17:19.711Z,2.51
2023-03-04T10:20:06.146Z,2.45
2023-03-04T10:22:52.103Z,2.58
2023-03-04T10:25:30.405Z,2.56
2023-03-04T10:28:33.707Z,2.63
2023-03-04T10:31:38.820Z,2.60
2023-03-04T10:34:07.235Z,2.62
2023-03-04T10:37:02.988Z,2.60
2023-03-04T10:39:47.166Z,2.69
2023-03-04T10:42:14.520Z,2.88
2023-03-04T10:44:54.330Z,2.54
2023-03-04T10:47:29.472Z,2.59
2023-03-04T10:50:03.700Z,2.64
2023-03-04T10:52:50.016Z,2.61
2023-03-04T10:55:21.742Z,2.60
2023-03-04T10:57:55.718Z,2.72
2023-03-04T11:00:35.231Z,2.64
2023-03-04T11:03:29.694Z,2.65
2023-03-04T11:06:22.239Z,2.55
2023-03-04T11:08:59.101Z,2.59
2023-03-04T11:11:40.164Z,2.64
2023-03-04T11:14:29.547Z,2.73
2023-03-04T11:17:01.578Z,2.62
2023-03-04T11:19:39.161Z,2.62
2023-03-04T11:22:07.192Z,2.66
2023-03-04T11:24:38.172Z,2.59
2023-03-04T11:27:24.325Z,2.58
2023-03-04T11:30:13.571Z,2.48
2023-03-04T11:32:48.947Z,2.55
2023-03-04T11:35:31.160Z,2.66
2023-03-04T11:38:17.084Z,2.63
2023-03-04T11:40:49.379Z,2.67
2023-03-04T11:43:32.809Z,2.80
2023-03-04T11:46:56.486Z,2.79
2023-03-04T11:50:03.569Z,2.90
2023-03-04T11:52:36.558Z,2.89
2023-03-04T11:55:38.904Z,2.83
2023-03-04T11:58:55.438Z,3.12
2023-03-04T12:01:45.437Z,3.27
2023-03-04T12:04:27.444Z,3.39
2023-03-04T12:07:50.393Z,3.41
2023-03-04T12:10:53.159Z,3.70
2023-03-04T12:13:35.539Z,3.76
2023-03-04T12:16:50.864Z,3.81
2023-03-04T12:19:47.897Z,3.92
2023-03-04T12:22:48.965Z,3.97
2023-03-04T12:25:22.361Z,3.96
2023-03-04T12:28:23.105Z,3.83
2023-03-04T12:31:17.596Z,3.76
2023-03-04T12:34:04.307Z,4.03
2023-03-04T12:36:59.003Z,3.85
2023-03-04T12:39:39.720Z,3.90
2023-03-04T12:42:55.774Z,3.95
2023-03-04T12:45:59.510Z,3.75
2023-03-04T12:48:44.201Z,3.86
2023-03-04T12:51:37.348Z,4.11
2023-03-04T12:54:24.086Z,4.09
2023-03-04T12:57:11.972Z,4.10
2023-03-04T13:00:20.396Z,4.23
2023-03-04T13:03:19.224Z,4.24
2023-03-04T13:05:57.399Z,4.23
2023-03-04T13:09:01.499Z,4.18
2023-03-04T13:11:30.109Z,4.31
2023-03-04T13:14:17.493Z,4.24
2023-03-04T13:16:49.416Z,4.25
2023-03-04T13:19:49.008Z,4.20
2023-03-04T13:22:48.049Z,4.29
2023-03-04T13:25:50.269Z,4.27
2023-03-04T13:28:25.624Z,4.13
2023-03-04T13:30:56.009Z,4.22
2023-03-04T13:33:23.618Z,4.21
2023-03-04T13:36:05.414Z,4.31
2023-03-04T13:38:38.834Z,4.34
2023-03-04T13:41:28.400Z,4.35
2023-03-04T13:43:58.443Z,4.41
2023-03-04T13:46:27.642Z,4.36
2023-03-04T13:49:02.317Z,4.36
2023-03-04T13:51:46.290Z,4.21
2023-03-04T13:54:19.847Z,4.21
2023-03-04T13:56:50.935Z,4.10
2023-03-04T13:59:44.325Z,4.11
2023-03-04T14:02:15.049Z,3.93
2023-03-04T14:04:46.042Z,4.06
2023-03-04T14:07:26.482Z,4.12
2023-03-04T14:10:12.648Z,3.97
2023-03-04T14:12:59.148Z,3.96
2023-03-04T14:15:32.207Z,3.95
2023-03-04T14:18:05.466Z,4.07
2023-03-04T14:20:42.785Z,4.03
2023-03-04T14:23:42.719Z,3.88
2023-03-04T14:26:15.901Z,3.92
2023-03-04T14:28:52.051Z,3.89
2023-03-04T14:31:27.657Z,3.97
2023-03-04T14:34:02.546Z,4.02
2023-03-04T14:36:35.900Z,3.94
2023-03-04T14:39:07.364Z,4.11
2023-03-04T14:41:39.560Z,4.10
2023-03-04T14:44:38.148Z,4.03
2023-03-04T14:47:19.586Z,3.95
2023-03-04T14:49:47.656Z,3.87
2023-03-04T14:52:43.522Z,3.84
2023-03-04T14:55:27.112Z,3.79
2023-03-04T14:58:21.852Z,3.78
2023-03-04T15:00:49.955Z,3.63
2023-03-04T15:03:30.563Z,3.79
2023-03-04T15:06:16.439Z,3.77
2023-03-04T15:08:45.494Z,3.84
2023-03-04T15:11:29.898Z,3.70
2023-03-04T15:13:59.891Z,3.82
2023-03-04T15:16:49.776Z,3.82
2023-03-04T15:19:30.258Z,3.67
2023-03-04T15:22:08.239Z,3.77
2023-03-04T15:24:36.130Z,3.77
2023-03-04T15:27:07.803Z,3.72
2023-03-04T15:29:35.591Z,3.63
2023-03-04T15:32:02.903Z,3.61
2023-03-04T15:34:30.984Z,3.65
2023-03-04T15:37:00.212Z,3.60
2023-03-04T15:39:28.137Z,3.60
2023-03-04T15:41:56.020Z,3.48
2023-03-04T15:44:23.664Z,3.66
2023-03-04T15:46:50.928Z,3.54
2023-03-04T15:49:18.490Z,3.52
2023-03-04T15:51:45.834Z,3.59
2023-03-04T15:54:14.117Z,3.51
2023-03-04T15:56:41.619Z,3.56
2023-03-04T15:59:17.465Z,3.67
2023-03-04T16:01:45.193Z,3.70
2023-03-04T16:04:17.219Z,3.65
2023-03-04T16:06:48.385Z,3.45
2023-03-04T16:09:21.252Z,3.58
2023-03-04T16:11:48.639Z,3.56
2023-03-04T16:14:17.158Z,3.45
2023-03-04T16:16:46.592Z,3.39
2023-03-04T16:19:15.251Z,3.50
2023-03-04T16:21:42.710Z,3.44
2023-03-04T16:24:20.003Z,3.45
2023-03-04T16:26:47.955Z,3.53
2023-03-04T16:29:16.883Z,3.51
2023-03-04T16:31:44.449Z,3.52
2023-03-04T16:34:12.382Z,3.63
2023-03-04T16:36:40.905Z,3.58
2023-03-04T16:39:22.981Z,3.61
2023-03-04T16:41:51.763Z,3.56
2023-03-04T16:44:19.679Z,3.60
2023-03-04T16:46:47.158Z,3.41
2023-03-04T16:49:14.709Z,3.54
2023-03-04T16:51:49.984Z,3.47
2023-03-04T16:54:28.016Z,3.44
2023-03-04T16:56:55.390Z,3.42
2023-03-04T16:59:23.323Z,3.37
2023-03-04T17:01:52.957Z,3.46
2023-03-04T17:04:21.622Z,3.52
2023-03-04T17:06:49.056Z,3.44
2023-03-04T17:09:16.727Z,3.47
2023-03-04T17:11:44.093Z,3.42
2023-03-04T17:14:11.808Z,3.59
2023-03-04T17:16:40.315Z,3.47
2023-03-04T17:19:07.913Z,3.42
2023-03-04T17:21:35.260Z,3.49
2023-03-04T17:24:03.545Z,3.55
2023-03-04T17:26:31.995Z,3.56
2023-03-04T17:28:59.701Z,3.47
2023-03-04T17:31:27.025Z,3.58
2023-03-04T17:33:54.701Z,3.48
2023-03-04T17:36:22.107Z,3.40
2023-03-04T17:38:52.021Z,3.54
2023-03-04T17:41:19.880Z,3.54
2023-03-04T17:43:51.642Z,3.55
2023-03-04T17:46:23.657Z,3.59
2023-03-04T17:48:57.640Z,3.48
2023-03-04T17:51:38.065Z,3.56
2023-03-04T17:54:08.694Z,3.56
2023-03-04T17:56:39.588Z,3.59
2023-03-04T17:59:12.666Z,3.60
2023-03-04T18:01:40.709Z,3.55
2023-03-04T18:04:08.937Z,3.52
2023-03-04T18:06:36.570Z,3.53
2023-03-04T18:09:05.520Z,3.50
2023-03-04T18:11:36.256Z,3.56
2023-03-04T18:14:04.531Z,3.55
2023-03-04T18:16:33.090Z,3.68
2023-03-04T18:19:02.353Z,3.68
2023-03-04T18:21:30.688Z,3.70
2023-03-04T18:23:59.239Z,3.68
2023-03-04T18:26:27.759Z,3.70
2023-03-04T18:28:57.124Z,3.73
2023-03-04T18:31:31.633Z,3.80
2023-03-04T18:34:01.977Z,3.83
2023-03-04T18:36:29.828Z,3.99
2023-03-04T18:38:59.533Z,3.87
2023-03-04T18:41:28.467Z,3.93
2023-03-04T18:43:56.508Z,3.93
2023-03-04T18:46:31.226Z,3.94
2023-03-04T18:49:09.016Z,3.88
2023-03-04T18:51:36.768Z,3.85
2023-03-04T18:54:04.982Z,3.89
2023-03-04T18:56:51.578Z,3.97
2023-03-04T18:59:44.677Z,4.04
2023-03-04T19:02:36.219Z,3.95
2023-03-04T19:05:14.309Z,3.92
2023-03-04T19:07:41.803Z,3.90
2023-03-04T19:10:12.318Z,3.94
2023-03-04T19:12:39.814Z,4.00
2023-03-04T19:15:10.396Z,3.92
2023-03-04T19:17:40.016Z,3.93
2023-03-04T19:20:10.045Z,3.96
2023-03-04T19:22:37.693Z,3.91
2023-03-04T19:25:06.022Z,4.06
2023-03-04T19:27:34.221Z,4.02
2023-03-04T19:30:02.469Z,4.04
2023-03-04T19:32:29.950Z,4.01
2023-03-04T19:34:57.759Z,4.04
2023-03-04T19:37:25.215Z,4.03
2023-03-04T19:39:54.562Z,4.02
2023-03-04T19:42:23.647Z,4.03
2023-03-04T19:44:51.840Z,4.07
2023-03-04T19:47:19.399Z,4.11
2023-03-04T19:49:47.215Z,4.16
2023-03-04T19:52:14.516Z,4.11
2023-03-04T19:54:42.162Z,4.13
2023-03-04T19:57:09.480Z,4.02
2023-03-04T19:59:37.190Z,4.04
2023-03-04T20:02:04.626Z,3.96
2023-03-04T20:04:32.533Z,4.05
2023-03-04T20:06:59.964Z,4.01
2023-03-04T20:09:27.720Z,4.17
2023-03-04T20:11:58.875Z,4.08
2023-03-04T20:14:28.179Z,4.03
2023-03-04T20:17:02.693Z,4.06
2023-03-04T20:19:32.256Z,4.06
2023-03-04T20:22:00.287Z,4.06
2023-03-04T20:24:28.096Z,3.94
2023-03-04T20:26:55.784Z,4.01
2023-03-04T20:29:23.705Z,3.99
2023-03-04T20:31:51.012Z,4.03
2023-03-04T20:34:18.798Z,3.89
2023-03-04T20:36:46.230Z,3.88
2023-03-04T20:39:28.689Z,3.88
2023-03-04T20:42:00.260Z,3.85
2023-03-04T20:44:28.476Z,3.91
2023-03-04T20:46:56.300Z,3.88
2023-03-04T20:49:28.422Z,3.90
2023-03-04T20:52:06.542Z,3.90
2023-03-04T20:54:39.300Z,3.94
2023-03-04T20:57:08.180Z,4.00
2023-03-04T20:59:38.612Z,3.98
2023-03-04T21:02:08.825Z,3.96
2023-03-04T21:04:36.572Z,3.87
2023-03-04T21:07:04.364Z,3.97
2023-03-04T21:09:32.080Z,3.99
2023-03-04T21:12:05.774Z,3.97
2023-03-04T21:14:33.578Z,4.00
2023-03-04T21:17:04.194Z,4.02
2023-03-04T21:19:42.398Z,4.05
2023-03-04T21:22:16.399Z,3.96
2023-03-04T21:24:45.660Z,4.04
2023-03-04T21:27:16.641Z,4.02
2023-03-04T21:29:44.484Z,3.93
2023-03-04T21:32:24.896Z,3.99
2023-03-04T21:34:55.329Z,3.97
2023-03-04T21:37:25.439Z,3.88
2023-03-04T21:39:54.448Z,3.92
2023-03-04T21:42:22.114Z,3.97
2023-03-04T21:44:51.473Z,3.89
2023-03-04T21:47:21.511Z,3.91
2023-03-04T21:49:49.333Z,3.87
2023-03-04T21:52:19.200Z,3.92
2023-03-04T21:54:47.973Z,3.94
2023-03-04T21:57:15.958Z,3.94
2023-03-04T21:59:43.529Z,3.86
2023-03-04T22:02:17.576Z,3.77
2023-03-04T22:04:45.730Z,3.88
2023-03-04T22:07:14.127Z,3.88
2023-03-04T22:09:41.720Z,3.83
2023-03-04T22:12:09.479Z,3.89
2023-03-04T22:14:37.135Z,3.89
2023-03-04T22:17:04.646Z,3.89
2023-03-04T22:19:33.450Z,3.94
2023-03-04T22:22:00.757Z,3.92
2023-03-04T22:24:28.948Z,3.96
2023-03-04T22:26:57.752Z,3.94
2023-03-04T22:29:25.546Z,3.98
2023-03-04T22:31:53.004Z,3.86
2023-03-04T22:34:20.869Z,3.89
2023-03-04T22:36:49.467Z,3.82
2023-03-04T22:39:19.478Z,3.74
2023-03-04T22:41:47.626Z,3.84
2023-03-04T22:44:15.428Z,3.79
2023-03-04T22:46:43.724Z,3.76
2023-03-04T22:49:13.884Z,3.73
2023-03-04T22:51:43.535Z,3.70
2023-03-04T22:54:16.920Z,3.75
2023-03-04T22:56:44.936Z,3.75
2023-03-04T22:59:13.734Z,3.75
2023-03-04T23:01:41.889Z,3.80
2023-03-04T23:04:09.497Z,3.77
2023-03-04T23:06:37.836Z,3.81
2023-03-04T23:09:05.958Z,3.84
2023-03-04T23:11:38.944Z,3.77
2023-03-04T23:14:08.552Z,3.72
2023-03-04T23:16:42.640Z,3.68
2023-03-04T23:19:16.637Z,3.73
2023-03-04T23:21:44.639Z,3.52
2023-03-04T23:24:13.513Z,3.57
2023-03-04T23:26:42.578Z,3.44
2023-03-04T23:29:16.474Z,3.41
2023-03-04T23:31:44.546Z,3.48
2023-03-04T23:34:12.930Z,3.53
2023-03-04T23:36:40.946Z,3.54
2023-03-04T23:39:09.200Z,3.56
2023-03-04T23:41:36.614Z,3.60
2023-03-04T23:44:04.626Z,3.59
2023-03-04T23:46:32.358Z,3.52
2023-03-04T23:49:00.525Z,3.48
2023-03-04T23:51:30.276Z,3.49
2023-03-04T23:53:58.924Z,3.49
2023-03-04T23:56:31.419Z,3.45
2023-03-04T23:59:00.704Z,3.55
